sensor_id;sensor_type;location;lat;lon;timestamp;temperature;humidity
18207;DHT22;9229;52.354;20.886;2022-09-12T00:02:21;11.60;99.90
18207;DHT22;9229;52.354;20.886;2022-09-12T00:07:24;11.60;99.90
18207;DHT22;9229;52.354;20.886;2022-09-12T00:12:26;11.60;99.90
18207;DHT22;9229;52.354;20.886;2022-09-12T00:17:28;11.50;99.90
18207;DHT22;9229;52.354;20.886;2022-09-12T00:22:31;11.60;99.90
18207;DHT22;9229;52.354;20.886;2022-09-12T00:27:33;11.50;99.90
18207;DHT22;9229;52.354;20.886;2022-09-12T00:32:35;11.50;99.90
18207;DHT22;9229;52.354;20.886;2022-09-12T00:37:38;11.50;99.90
18207;DHT22;9229;52.354;20.886;2022-09-12T00:42:40;11.50;99.90
18207;DHT22;9229;52.354;20.886;2022-09-12T00:47:42;11.50;99.90
18207;DHT22;9229;52.354;20.886;2022-09-12T00:52:48;11.50;99.90
18207;DHT22;9229;52.354;20.886;2022-09-12T00:57:53;11.40;99.90
18207;DHT22;9229;52.354;20.886;2022-09-12T01:03:01;11.30;99.90
18207;DHT22;9229;52.354;20.886;2022-09-12T01:08:04;11.30;99.90
18207;DHT22;9229;52.354;20.886;2022-09-12T01:13:08;11.10;99.90
18207;DHT22;9229;52.354;20.886;2022-09-12T01:18:17;11.10;99.90
18207;DHT22;9229;52.354;20.886;2022-09-12T01:23:47;11.10;99.90
18207;DHT22;9229;52.354;20.886;2022-09-12T01:29:13;11.10;99.90
18207;DHT22;9229;52.354;20.886;2022-09-12T01:34:23;11.20;99.90
18207;DHT22;9229;52.354;20.886;2022-09-12T01:39:32;11.20;99.90
18207;DHT22;9229;52.354;20.886;2022-09-12T01:44:45;11.20;99.90
18207;DHT22;9229;52.354;20.886;2022-09-12T01:49:54;11.40;99.90
18207;DHT22;9229;52.354;20.886;2022-09-12T01:55:00;11.20;99.90
18207;DHT22;9229;52.354;20.886;2022-09-12T02:00:09;11.20;99.90
18207;DHT22;9229;52.354;20.886;2022-09-12T02:05:21;11.20;99.90
18207;DHT22;9229;52.354;20.886;2022-09-12T02:10:25;11.20;99.90
18207;DHT22;9229;52.354;20.886;2022-09-12T02:15:39;11.20;99.90
18207;DHT22;9229;52.354;20.886;2022-09-12T02:20:46;11.20;99.90
18207;DHT22;9229;52.354;20.886;2022-09-12T02:25:52;11.20;99.90
18207;DHT22;9229;52.354;20.886;2022-09-12T02:30:59;11.20;99.90
18207;DHT22;9229;52.354;20.886;2022-09-12T02:36:10;11.20;99.90
18207;DHT22;9229;52.354;20.886;2022-09-12T02:41:18;11.20;99.90
18207;DHT22;9229;52.354;20.886;2022-09-12T02:46:22;11.20;99.90
18207;DHT22;9229;52.354;20.886;2022-09-12T02:51:27;11.20;99.90
18207;DHT22;9229;52.354;20.886;2022-09-12T02:56:30;11.20;99.90
18207;DHT22;9229;52.354;20.886;2022-09-12T03:01:52;11.20;99.90
18207;DHT22;9229;52.354;20.886;2022-09-12T03:07:09;11.20;99.90
18207;DHT22;9229;52.354;20.886;2022-09-12T03:12:23;11.20;99.90
18207;DHT22;9229;52.354;20.886;2022-09-12T03:17:31;11.20;99.90
18207;DHT22;9229;52.354;20.886;2022-09-12T03:22:44;11.20;99.90
18207;DHT22;9229;52.354;20.886;2022-09-12T03:27:55;11.20;99.90
18207;DHT22;9229;52.354;20.886;2022-09-12T03:32:58;11.10;99.90
18207;DHT22;9229;52.354;20.886;2022-09-12T03:38:01;11.10;99.90
18207;DHT22;9229;52.354;20.886;2022-09-12T03:43:03;11.00;99.90
18207;DHT22;9229;52.354;20.886;2022-09-12T03:48:05;11.00;99.90
18207;DHT22;9229;52.354;20.886;2022-09-12T03:53:09;10.90;99.90
18207;DHT22;9229;52.354;20.886;2022-09-12T03:58:10;10.90;99.90
18207;DHT22;9229;52.354;20.886;2022-09-12T04:03:12;11.00;99.90
18207;DHT22;9229;52.354;20.886;2022-09-12T04:08:15;10.80;99.90
18207;DHT22;9229;52.354;20.886;2022-09-12T04:13:17;10.80;99.90
18207;DHT22;9229;52.354;20.886;2022-09-12T04:18:19;10.80;99.90
18207;DHT22;9229;52.354;20.886;2022-09-12T04:23:22;10.80;99.90
18207;DHT22;9229;52.354;20.886;2022-09-12T04:28:25;10.70;99.90
18207;DHT22;9229;52.354;20.886;2022-09-12T04:33:28;10.70;99.90
18207;DHT22;9229;52.354;20.886;2022-09-12T04:38:31;10.60;99.90
18207;DHT22;9229;52.354;20.886;2022-09-12T04:43:33;10.70;99.90
18207;DHT22;9229;52.354;20.886;2022-09-12T04:48:35;10.70;99.90
18207;DHT22;9229;52.354;20.886;2022-09-12T04:53:38;10.70;99.90
18207;DHT22;9229;52.354;20.886;2022-09-12T04:58:41;10.70;99.90
18207;DHT22;9229;52.354;20.886;2022-09-12T05:03:43;10.70;99.90
18207;DHT22;9229;52.354;20.886;2022-09-12T05:08:47;10.70;99.90
18207;DHT22;9229;52.354;20.886;2022-09-12T05:13:49;10.80;99.90
18207;DHT22;9229;52.354;20.886;2022-09-12T05:18:51;10.80;99.90
18207;DHT22;9229;52.354;20.886;2022-09-12T05:23:56;10.80;99.90
18207;DHT22;9229;52.354;20.886;2022-09-12T05:28:59;10.80;99.90
18207;DHT22;9229;52.354;20.886;2022-09-12T05:34:01;10.90;99.90
18207;DHT22;9229;52.354;20.886;2022-09-12T05:39:05;10.90;99.90
18207;DHT22;9229;52.354;20.886;2022-09-12T05:44:10;10.90;99.90
18207;DHT22;9229;52.354;20.886;2022-09-12T05:49:13;11.00;99.90
18207;DHT22;9229;52.354;20.886;2022-09-12T05:54:17;11.10;99.90
18207;DHT22;9229;52.354;20.886;2022-09-12T05:59:21;11.00;99.90
18207;DHT22;9229;52.354;20.886;2022-09-12T06:04:23;11.10;99.90
18207;DHT22;9229;52.354;20.886;2022-09-12T06:09:29;11.10;99.90
18207;DHT22;9229;52.354;20.886;2022-09-12T06:14:32;11.10;99.90
18207;DHT22;9229;52.354;20.886;2022-09-12T06:19:33;11.20;99.90
18207;DHT22;9229;52.354;20.886;2022-09-12T06:24:36;11.20;99.90
18207;DHT22;9229;52.354;20.886;2022-09-12T06:29:38;11.30;99.90
18207;DHT22;9229;52.354;20.886;2022-09-12T06:34:40;11.40;99.90
18207;DHT22;9229;52.354;20.886;2022-09-12T06:39:43;11.40;99.90
18207;DHT22;9229;52.354;20.886;2022-09-12T06:44:45;11.50;99.90
18207;DHT22;9229;52.354;20.886;2022-09-12T06:49:47;11.70;99.90
18207;DHT22;9229;52.354;20.886;2022-09-12T06:54:51;11.80;99.90
18207;DHT22;9229;52.354;20.886;2022-09-12T06:59:53;12.00;99.90
18207;DHT22;9229;52.354;20.886;2022-09-12T07:04:55;12.20;99.90
18207;DHT22;9229;52.354;20.886;2022-09-12T07:09:58;12.40;99.90
18207;DHT22;9229;52.354;20.886;2022-09-12T07:15:00;12.40;99.90
18207;DHT22;9229;52.354;20.886;2022-09-12T07:20:02;12.40;99.90
18207;DHT22;9229;52.354;20.886;2022-09-12T07:25:06;12.40;99.90
18207;DHT22;9229;52.354;20.886;2022-09-12T07:30:08;12.40;99.90
18207;DHT22;9229;52.354;20.886;2022-09-12T07:35:10;12.40;99.90
18207;DHT22;9229;52.354;20.886;2022-09-12T07:40:14;12.40;99.90
18207;DHT22;9229;52.354;20.886;2022-09-12T07:45:16;12.60;99.90
18207;DHT22;9229;52.354;20.886;2022-09-12T07:50:18;12.90;99.90
18207;DHT22;9229;52.354;20.886;2022-09-12T07:55:21;12.90;99.90
18207;DHT22;9229;52.354;20.886;2022-09-12T08:00:23;13.00;99.90
18207;DHT22;9229;52.354;20.886;2022-09-12T08:05:26;13.10;99.90
18207;DHT22;9229;52.354;20.886;2022-09-12T08:10:29;13.20;99.90
18207;DHT22;9229;52.354;20.886;2022-09-12T08:15:31;13.20;99.90
18207;DHT22;9229;52.354;20.886;2022-09-12T08:20:32;13.40;99.90
18207;DHT22;9229;52.354;20.886;2022-09-12T08:25:35;13.30;99.90
18207;DHT22;9229;52.354;20.886;2022-09-12T08:30:37;13.50;99.90
18207;DHT22;9229;52.354;20.886;2022-09-12T08:35:39;13.60;99.90
18207;DHT22;9229;52.354;20.886;2022-09-12T08:40:48;13.70;99.90
18207;DHT22;9229;52.354;20.886;2022-09-12T08:45:56;13.90;99.90
18207;DHT22;9229;52.354;20.886;2022-09-12T08:51:00;14.00;99.90
18207;DHT22;9229;52.354;20.886;2022-09-12T08:56:06;14.00;99.90
18207;DHT22;9229;52.354;20.886;2022-09-12T09:01:16;14.00;99.90
18207;DHT22;9229;52.354;20.886;2022-09-12T09:06:34;14.20;99.90
18207;DHT22;9229;52.354;20.886;2022-09-12T09:11:50;14.20;99.90
18207;DHT22;9229;52.354;20.886;2022-09-12T09:16:55;14.20;99.90
18207;DHT22;9229;52.354;20.886;2022-09-12T09:22:03;14.40;99.90
18207;DHT22;9229;52.354;20.886;2022-09-12T09:27:13;14.70;99.90
18207;DHT22;9229;52.354;20.886;2022-09-12T09:32:17;15.10;99.90
18207;DHT22;9229;52.354;20.886;2022-09-12T09:37:26;15.20;99.90
18207;DHT22;9229;52.354;20.886;2022-09-12T09:42:39;15.00;99.90
18207;DHT22;9229;52.354;20.886;2022-09-12T09:47:44;14.80;99.90
18207;DHT22;9229;52.354;20.886;2022-09-12T09:52:46;14.70;99.90
18207;DHT22;9229;52.354;20.886;2022-09-12T09:57:51;14.70;99.90
18207;DHT22;9229;52.354;20.886;2022-09-12T10:08:24;14.70;99.90
18207;DHT22;9229;52.354;20.886;2022-09-12T10:13:37;14.70;99.90
18207;DHT22;9229;52.354;20.886;2022-09-12T10:18:41;14.60;99.90
18207;DHT22;9229;52.354;20.886;2022-09-12T10:23:43;14.60;99.90
18207;DHT22;9229;52.354;20.886;2022-09-12T10:28:50;14.50;99.90
18207;DHT22;9229;52.354;20.886;2022-09-12T10:33:52;14.60;99.90
18207;DHT22;9229;52.354;20.886;2022-09-12T10:38:57;14.90;99.90
18207;DHT22;9229;52.354;20.886;2022-09-12T10:44:07;15.00;99.90
18207;DHT22;9229;52.354;20.886;2022-09-12T10:49:21;14.80;99.90
18207;DHT22;9229;52.354;20.886;2022-09-12T10:54:26;14.80;99.90
18207;DHT22;9229;52.354;20.886;2022-09-12T10:59:39;15.10;99.90
18207;DHT22;9229;52.354;20.886;2022-09-12T11:04:53;15.50;99.90
18207;DHT22;9229;52.354;20.886;2022-09-12T11:10:03;16.00;99.90
18207;DHT22;9229;52.354;20.886;2022-09-12T11:15:34;16.10;99.90
18207;DHT22;9229;52.354;20.886;2022-09-12T11:20:57;16.00;99.90
18207;DHT22;9229;52.354;20.886;2022-09-12T11:26:08;15.70;99.90
18207;DHT22;9229;52.354;20.886;2022-09-12T11:31:38;15.50;99.90
18207;DHT22;9229;52.354;20.886;2022-09-12T11:36:46;15.40;99.90
18207;DHT22;9229;52.354;20.886;2022-09-12T11:41:56;15.30;99.90
18207;DHT22;9229;52.354;20.886;2022-09-12T11:47:04;15.50;99.90
18207;DHT22;9229;52.354;20.886;2022-09-12T11:52:12;15.60;99.90
18207;DHT22;9229;52.354;20.886;2022-09-12T11:57:17;15.40;99.90
18207;DHT22;9229;52.354;20.886;2022-09-12T12:02:25;15.30;99.90
18207;DHT22;9229;52.354;20.886;2022-09-12T12:07:30;15.40;99.90
18207;DHT22;9229;52.354;20.886;2022-09-12T12:12:37;15.90;99.90
18207;DHT22;9229;52.354;20.886;2022-09-12T12:17:41;16.30;99.90
18207;DHT22;9229;52.354;20.886;2022-09-12T12:22:50;16.10;99.90
18207;DHT22;9229;52.354;20.886;2022-09-12T12:27:54;16.10;99.90
18207;DHT22;9229;52.354;20.886;2022-09-12T12:33:00;16.20;99.90
18207;DHT22;9229;52.354;20.886;2022-09-12T12:38:03;16.30;99.90
18207;DHT22;9229;52.354;20.886;2022-09-12T12:43:29;16.30;99.90
18207;DHT22;9229;52.354;20.886;2022-09-12T12:48:42;16.20;99.90
18207;DHT22;9229;52.354;20.886;2022-09-12T12:53:45;16.20;99.90
18207;DHT22;9229;52.354;20.886;2022-09-12T12:58:46;16.30;99.90
18207;DHT22;9229;52.354;20.886;2022-09-12T13:03:56;16.40;99.90
18207;DHT22;9229;52.354;20.886;2022-09-12T13:09:02;16.30;99.90
18207;DHT22;9229;52.354;20.886;2022-09-12T13:14:06;16.40;99.90
18207;DHT22;9229;52.354;20.886;2022-09-12T13:19:31;16.50;99.90
18207;DHT22;9229;52.354;20.886;2022-09-12T13:24:41;16.70;99.90
18207;DHT22;9229;52.354;20.886;2022-09-12T13:29:44;17.10;99.90
18207;DHT22;9229;52.354;20.886;2022-09-12T13:35:00;17.60;99.90
18207;DHT22;9229;52.354;20.886;2022-09-12T13:40:27;17.80;99.90
18207;DHT22;9229;52.354;20.886;2022-09-12T13:45:36;17.60;99.90
18207;DHT22;9229;52.354;20.886;2022-09-12T13:50:44;17.60;99.90
18207;DHT22;9229;52.354;20.886;2022-09-12T13:55:48;17.80;99.90
18207;DHT22;9229;52.354;20.886;2022-09-12T14:01:02;18.10;99.90
18207;DHT22;9229;52.354;20.886;2022-09-12T14:06:06;18.30;99.90
18207;DHT22;9229;52.354;20.886;2022-09-12T14:11:09;18.70;99.90
18207;DHT22;9229;52.354;20.886;2022-09-12T14:16:11;18.70;99.90
18207;DHT22;9229;52.354;20.886;2022-09-12T14:21:30;18.70;99.90
18207;DHT22;9229;52.354;20.886;2022-09-12T14:26:34;18.60;99.90
18207;DHT22;9229;52.354;20.886;2022-09-12T14:31:37;18.40;99.90
18207;DHT22;9229;52.354;20.886;2022-09-12T14:36:45;18.30;99.90
18207;DHT22;9229;52.354;20.886;2022-09-12T14:41:48;18.20;99.90
18207;DHT22;9229;52.354;20.886;2022-09-12T14:46:50;18.20;99.90
18207;DHT22;9229;52.354;20.886;2022-09-12T14:51:56;18.10;99.90
18207;DHT22;9229;52.354;20.886;2022-09-12T14:57:01;18.00;99.90
18207;DHT22;9229;52.354;20.886;2022-09-12T15:02:30;18.00;99.90
18207;DHT22;9229;52.354;20.886;2022-09-12T15:07:35;18.10;99.90
18207;DHT22;9229;52.354;20.886;2022-09-12T15:12:37;18.00;99.90
18207;DHT22;9229;52.354;20.886;2022-09-12T15:17:39;17.90;99.90
18207;DHT22;9229;52.354;20.886;2022-09-12T15:22:42;17.80;99.90
18207;DHT22;9229;52.354;20.886;2022-09-12T15:27:44;17.60;99.90
18207;DHT22;9229;52.354;20.886;2022-09-12T15:32:46;17.50;99.90
18207;DHT22;9229;52.354;20.886;2022-09-12T15:37:49;17.40;99.90
18207;DHT22;9229;52.354;20.886;2022-09-12T15:42:51;17.30;99.90
18207;DHT22;9229;52.354;20.886;2022-09-12T15:47:53;17.10;99.90
18207;DHT22;9229;52.354;20.886;2022-09-12T15:52:57;17.00;99.90
18207;DHT22;9229;52.354;20.886;2022-09-12T15:57:59;16.80;99.90
18207;DHT22;9229;52.354;20.886;2022-09-12T16:03:02;16.70;99.90
18207;DHT22;9229;52.354;20.886;2022-09-12T16:08:05;16.50;99.90
18207;DHT22;9229;52.354;20.886;2022-09-12T16:13:07;16.20;99.90
18207;DHT22;9229;52.354;20.886;2022-09-12T16:18:09;16.10;99.90
18207;DHT22;9229;52.354;20.886;2022-09-12T16:23:13;15.90;99.90
18207;DHT22;9229;52.354;20.886;2022-09-12T16:28:15;15.80;99.90
18207;DHT22;9229;52.354;20.886;2022-09-12T16:33:16;15.70;99.90
18207;DHT22;9229;52.354;20.886;2022-09-12T16:38:20;15.60;99.90
18207;DHT22;9229;52.354;20.886;2022-09-12T16:43:22;15.50;99.90
18207;DHT22;9229;52.354;20.886;2022-09-12T16:48:24;15.40;99.90
18207;DHT22;9229;52.354;20.886;2022-09-12T16:53:28;15.30;99.90
18207;DHT22;9229;52.354;20.886;2022-09-12T16:58:31;15.20;99.90
18207;DHT22;9229;52.354;20.886;2022-09-12T17:03:33;15.10;99.90
18207;DHT22;9229;52.354;20.886;2022-09-12T17:08:38;15.00;99.90
18207;DHT22;9229;52.354;20.886;2022-09-12T17:13:41;14.90;99.90
18207;DHT22;9229;52.354;20.886;2022-09-12T17:18:46;14.90;99.90
18207;DHT22;9229;52.354;20.886;2022-09-12T17:23:50;14.70;99.90
18207;DHT22;9229;52.354;20.886;2022-09-12T17:28:51;14.60;99.90
18207;DHT22;9229;52.354;20.886;2022-09-12T17:33:55;14.60;99.90
18207;DHT22;9229;52.354;20.886;2022-09-12T17:39:00;14.40;99.90
18207;DHT22;9229;52.354;20.886;2022-09-12T17:44:03;14.40;99.90
18207;DHT22;9229;52.354;20.886;2022-09-12T17:49:09;14.40;99.90
18207;DHT22;9229;52.354;20.886;2022-09-12T17:54:15;14.40;99.90
18207;DHT22;9229;52.354;20.886;2022-09-12T17:59:19;14.30;99.90
18207;DHT22;9229;52.354;20.886;2022-09-12T18:04:23;14.30;99.90
18207;DHT22;9229;52.354;20.886;2022-09-12T18:09:28;14.20;99.90
18207;DHT22;9229;52.354;20.886;2022-09-12T18:14:30;14.20;99.90
18207;DHT22;9229;52.354;20.886;2022-09-12T18:19:35;14.10;99.90
18207;DHT22;9229;52.354;20.886;2022-09-12T18:24:39;14.10;99.90
18207;DHT22;9229;52.354;20.886;2022-09-12T18:29:40;14.10;99.90
18207;DHT22;9229;52.354;20.886;2022-09-12T18:34:42;14.10;99.90
18207;DHT22;9229;52.354;20.886;2022-09-12T18:39:45;14.20;99.90
18207;DHT22;9229;52.354;20.886;2022-09-12T18:44:47;14.20;99.90
18207;DHT22;9229;52.354;20.886;2022-09-12T18:49:49;14.20;99.90
18207;DHT22;9229;52.354;20.886;2022-09-12T18:54:52;14.10;99.90
18207;DHT22;9229;52.354;20.886;2022-09-12T18:59:54;14.00;99.90
18207;DHT22;9229;52.354;20.886;2022-09-12T19:04:59;14.00;99.90
18207;DHT22;9229;52.354;20.886;2022-09-12T19:10:02;14.00;99.90
18207;DHT22;9229;52.354;20.886;2022-09-12T19:15:05;14.00;99.90
18207;DHT22;9229;52.354;20.886;2022-09-12T19:20:08;14.00;99.90
18207;DHT22;9229;52.354;20.886;2022-09-12T19:25:11;13.90;99.90
18207;DHT22;9229;52.354;20.886;2022-09-12T19:30:13;13.70;99.90
18207;DHT22;9229;52.354;20.886;2022-09-12T19:35:15;13.60;99.90
18207;DHT22;9229;52.354;20.886;2022-09-12T19:40:18;13.40;99.90
18207;DHT22;9229;52.354;20.886;2022-09-12T19:45:20;13.20;99.90
18207;DHT22;9229;52.354;20.886;2022-09-12T19:50:22;13.10;99.90
18207;DHT22;9229;52.354;20.886;2022-09-12T19:55:25;13.00;99.90
18207;DHT22;9229;52.354;20.886;2022-09-12T20:00:27;12.80;99.90
18207;DHT22;9229;52.354;20.886;2022-09-12T20:05:31;12.70;99.90
18207;DHT22;9229;52.354;20.886;2022-09-12T20:10:34;12.50;99.90
18207;DHT22;9229;52.354;20.886;2022-09-12T20:15:36;12.30;99.90
18207;DHT22;9229;52.354;20.886;2022-09-12T20:20:38;12.10;99.90
18207;DHT22;9229;52.354;20.886;2022-09-12T20:25:41;11.90;99.90
18207;DHT22;9229;52.354;20.886;2022-09-12T20:30:43;11.90;99.90
18207;DHT22;9229;52.354;20.886;2022-09-12T20:35:45;11.70;99.90
18207;DHT22;9229;52.354;20.886;2022-09-12T20:40:48;11.60;99.90
18207;DHT22;9229;52.354;20.886;2022-09-12T20:45:50;11.40;99.90
18207;DHT22;9229;52.354;20.886;2022-09-12T20:50:52;11.30;99.90
18207;DHT22;9229;52.354;20.886;2022-09-12T20:55:55;11.20;99.90
18207;DHT22;9229;52.354;20.886;2022-09-12T21:00:57;11.10;99.90
18207;DHT22;9229;52.354;20.886;2022-09-12T21:05:59;11.00;99.90
18207;DHT22;9229;52.354;20.886;2022-09-12T21:11:02;10.90;99.90
18207;DHT22;9229;52.354;20.886;2022-09-12T21:16:06;10.80;99.90
18207;DHT22;9229;52.354;20.886;2022-09-12T21:21:10;10.60;99.90
18207;DHT22;9229;52.354;20.886;2022-09-12T21:26:13;10.50;99.90
18207;DHT22;9229;52.354;20.886;2022-09-12T21:31:15;10.40;99.90
18207;DHT22;9229;52.354;20.886;2022-09-12T21:36:17;10.20;99.90
18207;DHT22;9229;52.354;20.886;2022-09-12T21:41:20;10.20;99.90
18207;DHT22;9229;52.354;20.886;2022-09-12T21:46:22;10.00;99.90
18207;DHT22;9229;52.354;20.886;2022-09-12T21:51:23;10.00;99.90
18207;DHT22;9229;52.354;20.886;2022-09-12T21:56:27;9.90;99.90
18207;DHT22;9229;52.354;20.886;2022-09-12T22:01:29;9.80;99.90
18207;DHT22;9229;52.354;20.886;2022-09-12T22:06:31;9.60;99.90
18207;DHT22;9229;52.354;20.886;2022-09-12T22:11:34;9.60;99.90
18207;DHT22;9229;52.354;20.886;2022-09-12T22:16:36;9.50;99.90
18207;DHT22;9229;52.354;20.886;2022-09-12T22:21:37;9.40;99.90
18207;DHT22;9229;52.354;20.886;2022-09-12T22:27:02;9.30;99.90
18207;DHT22;9229;52.354;20.886;2022-09-12T22:32:04;9.20;99.90
18207;DHT22;9229;52.354;20.886;2022-09-12T22:37:06;9.20;99.90
18207;DHT22;9229;52.354;20.886;2022-09-12T22:42:11;9.10;99.90
18207;DHT22;9229;52.354;20.886;2022-09-12T22:47:14;9.00;99.90
18207;DHT22;9229;52.354;20.886;2022-09-12T22:52:16;9.00;99.90
18207;DHT22;9229;52.354;20.886;2022-09-12T22:57:19;9.00;99.90
18207;DHT22;9229;52.354;20.886;2022-09-12T23:12:27;8.80;99.90
18207;DHT22;9229;52.354;20.886;2022-09-12T23:17:29;9.10;99.90
18207;DHT22;9229;52.354;20.886;2022-09-12T23:27:34;8.50;99.90
18207;DHT22;9229;52.354;20.886;2022-09-12T23:37:38;8.60;99.90
18207;DHT22;9229;52.354;20.886;2022-09-12T23:42:41;8.40;99.90
18207;DHT22;9229;52.354;20.886;2022-09-12T23:47:43;8.40;99.90
18207;DHT22;9229;52.354;20.886;2022-09-12T23:52:45;8.40;99.90
18207;DHT22;9229;52.354;20.886;2022-09-12T23:57:48;8.30;99.90
